createdAt,value
2018-02-24T00:00:05.206Z,1018.97
2018-02-24T00:01:05.161Z,1019.01
2018-02-24T00:02:05.137Z,1018.98
2018-02-24T00:03:05.104Z,1019.05
2018-02-24T00:04:05.080Z,1019.04
2018-02-24T00:05:05.045Z,1019.02
2018-02-24T00:06:05.017Z,1018.99
2018-02-24T00:07:04.987Z,1018.99
2018-02-24T00:08:04.969Z,1019.00
2018-02-24T00:09:04.936Z,1019.04
2018-02-24T00:10:04.925Z,1019.00
2018-02-24T00:11:04.872Z,1018.99
2018-02-24T00:12:04.901Z,1019.05
2018-02-24T00:13:04.817Z,1019.03
2018-02-24T00:14:04.789Z,1019.00
2018-02-24T00:15:04.759Z,1019.04
2018-02-24T00:16:04.731Z,1019.04
2018-02-24T00:17:04.701Z,1019.03
2018-02-24T00:18:04.676Z,1019.04
2018-02-24T00:19:04.646Z,1019.06
2018-02-24T00:20:04.620Z,1019.05
2018-02-24T00:21:04.589Z,1019.00
2018-02-24T00:22:04.586Z,1019.02
2018-02-24T00:23:04.531Z,1019.00
2018-02-24T00:24:04.505Z,1018.98
2018-02-24T00:25:04.491Z,1019.00
2018-02-24T00:26:04.447Z,1018.99
2018-02-24T00:27:04.422Z,1018.99
2018-02-24T00:28:04.494Z,1019.00
2018-02-24T00:29:04.362Z,1018.99
2018-02-24T00:30:04.335Z,1019.07
2018-02-24T00:31:04.302Z,1019.09
2018-02-24T00:32:04.274Z,1019.08
2018-02-24T00:33:04.250Z,1019.04
2018-02-24T00:34:04.218Z,1019.06
2018-02-24T00:35:04.191Z,1019.06
2018-02-24T00:36:04.159Z,1019.06
2018-02-24T00:37:04.137Z,1019.08
2018-02-24T00:38:04.104Z,1019.04
2018-02-24T00:39:04.076Z,1019.09
2018-02-24T00:40:04.046Z,1019.12
2018-02-24T00:41:04.021Z,1019.07
2018-02-24T00:42:03.992Z,1019.09
2018-02-24T00:43:03.961Z,1019.06
2018-02-24T00:44:03.934Z,1019.05
2018-02-24T00:45:03.903Z,1019.07
2018-02-24T00:46:03.875Z,1019.10
2018-02-24T00:47:03.845Z,1019.12
2018-02-24T00:48:03.828Z,1019.13
2018-02-24T00:49:03.793Z,1019.12
2018-02-24T00:50:03.762Z,1019.12
2018-02-24T00:51:03.735Z,1019.14
2018-02-24T00:52:03.708Z,1019.12
2018-02-24T00:53:03.713Z,1019.11
2018-02-24T00:54:03.646Z,1019.11
2018-02-24T00:55:03.623Z,1019.09
2018-02-24T00:56:03.592Z,1019.05
2018-02-24T00:57:03.564Z,1019.09
2018-02-24T00:58:03.533Z,1019.07
2018-02-24T00:59:03.515Z,1019.16
2018-02-24T01:00:03.476Z,1019.11
2018-02-24T01:01:03.452Z,1019.13
2018-02-24T01:02:03.419Z,1019.12
2018-02-24T01:03:03.390Z,1019.12
2018-02-24T01:04:03.498Z,1019.11
2018-02-24T01:05:03.331Z,1019.06
2018-02-24T01:06:03.303Z,1019.14
2018-02-24T01:07:03.375Z,1019.18
2018-02-24T01:08:03.253Z,1019.09
2018-02-24T01:09:03.221Z,1019.12
2018-02-24T01:10:03.291Z,1019.14
2018-02-24T01:11:03.160Z,1019.09
2018-02-24T01:12:03.143Z,1019.10
2018-02-24T01:13:03.163Z,1019.08
2018-02-24T01:14:03.076Z,1019.09
2018-02-24T01:15:03.044Z,1019.08
2018-02-24T01:16:03.020Z,1019.06
2018-02-24T01:17:02.999Z,1019.06
2018-02-24T01:18:02.962Z,1019.12
2018-02-24T01:19:02.938Z,1019.09
2018-02-24T01:20:02.944Z,1019.08
2018-02-24T01:21:02.874Z,1019.10
2018-02-24T01:22:02.847Z,1019.12
2018-02-24T01:23:02.818Z,1019.06
2018-02-24T01:24:02.788Z,1019.06
2018-02-24T01:25:02.760Z,1019.05
2018-02-24T01:26:02.730Z,1019.05
2018-02-24T01:27:02.708Z,1019.09
2018-02-24T01:28:02.673Z,1019.02
2018-02-24T01:29:02.655Z,1019.07
2018-02-24T01:30:02.617Z,1019.06
2018-02-24T01:31:02.598Z,1019.09
2018-02-24T01:32:02.559Z,1019.04
2018-02-24T01:33:02.528Z,1019.06
2018-02-24T01:34:02.501Z,1019.03
2018-02-24T01:35:02.472Z,1019.04
2018-02-24T01:36:02.447Z,1019.02
2018-02-24T01:37:02.418Z,1019.04
2018-02-24T01:38:02.393Z,1019.05
2018-02-24T01:39:02.362Z,1019.03
2018-02-24T01:40:02.328Z,1019.02
2018-02-24T01:41:02.299Z,1019.07
2018-02-24T01:42:02.269Z,1019.02
2018-02-24T01:43:02.243Z,1019.03
2018-02-24T01:44:02.216Z,1019.09
2018-02-24T01:45:02.185Z,1019.09
2018-02-24T01:46:02.155Z,1019.11
2018-02-24T01:47:02.124Z,1019.13
2018-02-24T01:48:02.097Z,1019.17
2018-02-24T01:49:02.157Z,1019.15
2018-02-24T01:50:02.041Z,1019.10
2018-02-24T01:51:02.014Z,1019.13
2018-02-24T01:52:02.058Z,1019.09
2018-02-24T01:53:01.955Z,1019.13
2018-02-24T01:54:01.923Z,1019.10
2018-02-24T01:55:01.956Z,1019.13
2018-02-24T01:56:01.871Z,1019.12
2018-02-24T01:57:01.839Z,1019.13
2018-02-24T01:58:01.811Z,1019.15
2018-02-24T01:59:01.779Z,1019.17
2018-02-24T02:00:01.749Z,1019.19
2018-02-24T02:01:01.725Z,1019.15
2018-02-24T02:02:01.693Z,1019.16
2018-02-24T02:03:01.670Z,1019.17
2018-02-24T02:04:01.633Z,1019.19
2018-02-24T02:05:01.608Z,1019.20
2018-02-24T02:06:01.579Z,1019.20
2018-02-24T02:07:01.547Z,1019.14
2018-02-24T02:08:01.524Z,1019.17
2018-02-24T02:09:01.492Z,1019.14
2018-02-24T02:10:01.471Z,1019.15
2018-02-24T02:11:01.434Z,1019.17
2018-02-24T02:12:01.402Z,1019.15
2018-02-24T02:13:01.373Z,1019.14
2018-02-24T02:14:01.343Z,1019.09
2018-02-24T02:15:01.316Z,1019.13
2018-02-24T02:16:01.286Z,1019.18
2018-02-24T02:17:01.264Z,1019.11
2018-02-24T02:18:01.237Z,1019.14
2018-02-24T02:19:01.209Z,1019.17
2018-02-24T02:20:01.197Z,1019.14
2018-02-24T02:21:01.144Z,1019.18
2018-02-24T02:22:01.111Z,1019.14
2018-02-24T02:23:01.082Z,1019.17
2018-02-24T02:24:01.052Z,1019.15
2018-02-24T02:25:01.025Z,1019.12
2018-02-24T02:26:00.995Z,1019.16
2018-02-24T02:27:00.964Z,1019.12
2018-02-24T02:28:00.939Z,1019.15
2018-02-24T02:29:00.909Z,1019.17
2018-02-24T02:30:00.880Z,1019.14
2018-02-24T02:31:00.853Z,1019.17
2018-02-24T02:32:00.821Z,1019.19
2018-02-24T02:33:00.792Z,1019.17
2018-02-24T02:34:00.811Z,1019.21
2018-02-24T02:35:00.734Z,1019.16
2018-02-24T02:36:00.704Z,1019.18
2018-02-24T02:37:00.699Z,1019.14
2018-02-24T02:38:00.649Z,1019.15
2018-02-24T02:39:00.618Z,1019.16
2018-02-24T02:40:00.644Z,1019.16
2018-02-24T02:41:00.560Z,1019.10
2018-02-24T02:42:00.529Z,1019.14
2018-02-24T02:43:00.503Z,1019.16
2018-02-24T02:44:00.473Z,1019.17
2018-02-24T02:45:00.448Z,1019.17
2018-02-24T02:46:00.419Z,1019.13
2018-02-24T02:47:00.386Z,1019.17
2018-02-24T02:48:00.357Z,1019.18
2018-02-24T02:49:00.328Z,1019.14
2018-02-24T02:50:00.303Z,1019.15
2018-02-24T02:51:00.269Z,1019.21
2018-02-24T02:52:00.242Z,1019.10
2018-02-24T02:53:00.212Z,1019.14
2018-02-24T02:54:00.181Z,1019.14
2018-02-24T02:55:00.155Z,1019.16
2018-02-24T02:56:00.123Z,1019.11
2018-02-24T02:57:00.095Z,1019.10
2018-02-24T02:58:00.065Z,1019.09
2018-02-24T02:59:00.039Z,1019.11
2018-02-24T03:00:00.014Z,1019.11
2018-02-24T03:00:59.991Z,1019.12
2018-02-24T03:01:59.949Z,1019.11
2018-02-24T03:02:59.920Z,1019.14
2018-02-24T03:03:59.896Z,1019.11
2018-02-24T03:04:59.886Z,1019.16
2018-02-24T03:05:59.834Z,1019.16
2018-02-24T03:06:59.807Z,1019.15
2018-02-24T03:07:59.776Z,1019.17
2018-02-24T03:08:59.750Z,1019.19
2018-02-24T03:09:59.722Z,1019.21
2018-02-24T03:10:59.688Z,1019.18
2018-02-24T03:11:59.658Z,1019.24
2018-02-24T03:12:59.633Z,1019.26
2018-02-24T03:13:59.605Z,1019.25
2018-02-24T03:14:59.574Z,1019.28
2018-02-24T03:15:59.547Z,1019.30
2018-02-24T03:16:59.516Z,1019.32
2018-02-24T03:17:59.489Z,1019.27
2018-02-24T03:18:59.539Z,1019.27
2018-02-24T03:19:59.437Z,1019.35
2018-02-24T03:20:59.413Z,1019.31
2018-02-24T03:21:59.375Z,1019.38
2018-02-24T03:22:59.348Z,1019.35
2018-02-24T03:23:59.315Z,1019.39
2018-02-24T03:24:59.293Z,1019.39
2018-02-24T03:25:59.256Z,1019.42
2018-02-24T03:26:59.228Z,1019.43
2018-02-24T03:27:59.202Z,1019.44
2018-02-24T03:28:59.182Z,1019.41
2018-02-24T03:29:59.143Z,1019.42
2018-02-24T03:30:59.113Z,1019.42
2018-02-24T03:31:59.081Z,1019.44
2018-02-24T03:32:59.053Z,1019.45
2018-02-24T03:33:59.033Z,1019.49
2018-02-24T03:34:58.995Z,1019.48
2018-02-24T03:35:58.974Z,1019.45
2018-02-24T03:36:58.939Z,1019.48
2018-02-24T03:37:58.910Z,1019.46
2018-02-24T03:38:58.880Z,1019.52
2018-02-24T03:39:58.854Z,1019.53
2018-02-24T03:40:58.822Z,1019.58
2018-02-24T03:41:58.794Z,1019.51
2018-02-24T03:42:58.763Z,1019.53
2018-02-24T03:43:58.748Z,1019.56
2018-02-24T03:44:58.709Z,1019.56
2018-02-24T03:45:58.679Z,1019.52
2018-02-24T03:46:58.701Z,1019.54
2018-02-24T03:47:58.619Z,1019.55
2018-02-24T03:48:58.590Z,1019.55
2018-02-24T03:49:58.685Z,1019.62
2018-02-24T03:50:58.534Z,1019.62
2018-02-24T03:51:58.503Z,1019.62
2018-02-24T03:52:58.530Z,1019.61
2018-02-24T03:53:58.449Z,1019.62
2018-02-24T03:54:58.418Z,1019.60
2018-02-24T03:55:58.390Z,1019.61
2018-02-24T03:56:58.361Z,1019.58
2018-02-24T03:57:58.332Z,1019.60
2018-02-24T03:58:58.301Z,1019.57
2018-02-24T03:59:58.272Z,1019.60
2018-02-24T04:00:58.330Z,1019.59
2018-02-24T04:01:58.219Z,1019.60
2018-02-24T04:02:58.188Z,1019.60
2018-02-24T04:03:58.169Z,1019.57
2018-02-24T04:04:58.127Z,1019.60
2018-02-24T04:05:58.099Z,1019.58
2018-02-24T04:06:58.072Z,1019.58
2018-02-24T04:07:58.041Z,1019.62
2018-02-24T04:08:58.021Z,1019.57
2018-02-24T04:09:57.989Z,1019.63
2018-02-24T04:10:57.957Z,1019.65
2018-02-24T04:11:57.926Z,1019.61
2018-02-24T04:12:57.895Z,1019.60
2018-02-24T04:13:57.865Z,1019.61
2018-02-24T04:14:57.838Z,1019.63
2018-02-24T04:15:57.808Z,1019.66
2018-02-24T04:16:57.780Z,1019.68
2018-02-24T04:17:57.749Z,1019.64
2018-02-24T04:18:57.719Z,1019.68
2018-02-24T04:19:57.690Z,1019.72
2018-02-24T04:20:57.664Z,1019.73
2018-02-24T04:21:57.634Z,1019.78
2018-02-24T04:22:57.604Z,1019.73
2018-02-24T04:23:57.574Z,1019.78
2018-02-24T04:24:57.545Z,1019.77
2018-02-24T04:25:57.516Z,1019.80
2018-02-24T04:26:57.485Z,1019.77
2018-02-24T04:27:57.458Z,1019.82
2018-02-24T04:28:57.433Z,1019.81
2018-02-24T04:29:57.398Z,1019.80
2018-02-24T04:30:57.367Z,1019.81
2018-02-24T04:31:57.419Z,1019.78
2018-02-24T04:32:57.331Z,1019.83
2018-02-24T04:33:57.283Z,1019.79
2018-02-24T04:34:57.282Z,1019.82
2018-02-24T04:35:57.224Z,1019.84
2018-02-24T04:36:57.195Z,1019.84
2018-02-24T04:37:57.168Z,1019.83
2018-02-24T04:38:57.137Z,1019.84
2018-02-24T04:39:57.107Z,1019.87
2018-02-24T04:40:57.077Z,1019.87
2018-02-24T04:41:57.052Z,1019.90
2018-02-24T04:42:57.017Z,1019.87
2018-02-24T04:43:56.993Z,1019.90
2018-02-24T04:44:56.962Z,1019.90
2018-02-24T04:45:57.051Z,1019.93
2018-02-24T04:46:56.907Z,1019.94
2018-02-24T04:47:56.876Z,1019.93
2018-02-24T04:48:56.920Z,1019.96
2018-02-24T04:49:56.817Z,1020.00
2018-02-24T04:50:56.786Z,1019.97
2018-02-24T04:51:56.760Z,1020.00
2018-02-24T04:52:56.731Z,1020.00
2018-02-24T04:53:56.700Z,1020.03
2018-02-24T04:54:56.670Z,1020.06
2018-02-24T04:55:56.641Z,1020.07
2018-02-24T04:56:56.608Z,1020.07
2018-02-24T04:57:56.580Z,1020.10
2018-02-24T04:58:56.550Z,1020.08
2018-02-24T04:59:56.520Z,1020.09
2018-02-24T05:00:56.494Z,1020.12
2018-02-24T05:01:56.471Z,1020.11
2018-02-24T05:02:56.433Z,1020.10
2018-02-24T05:03:56.403Z,1020.11
2018-02-24T05:04:56.373Z,1020.10
2018-02-24T05:05:56.352Z,1020.10
2018-02-24T05:06:56.314Z,1020.11
2018-02-24T05:07:56.290Z,1020.14
2018-02-24T05:08:56.274Z,1020.12
2018-02-24T05:09:56.226Z,1020.15
2018-02-24T05:10:56.200Z,1020.14
2018-02-24T05:11:56.167Z,1020.11
2018-02-24T05:12:56.143Z,1020.15
2018-02-24T05:13:56.259Z,1020.19
2018-02-24T05:14:56.080Z,1020.15
2018-02-24T05:15:56.060Z,1020.17
2018-02-24T05:16:56.045Z,1020.18
2018-02-24T05:17:56.001Z,1020.20
2018-02-24T05:18:55.962Z,1020.24
2018-02-24T05:19:55.955Z,1020.25
2018-02-24T05:20:55.907Z,1020.25
2018-02-24T05:21:55.894Z,1020.25
2018-02-24T05:22:55.899Z,1020.25
2018-02-24T05:23:55.821Z,1020.25
2018-02-24T05:24:55.864Z,1020.31
2018-02-24T05:25:55.767Z,1020.28
2018-02-24T05:26:55.728Z,1020.28
2018-02-24T05:27:55.704Z,1020.32
2018-02-24T05:28:55.672Z,1020.35
2018-02-24T05:29:55.646Z,1020.33
2018-02-24T05:30:55.615Z,1020.35
2018-02-24T05:31:55.585Z,1020.36
2018-02-24T05:32:55.566Z,1020.33
2018-02-24T05:33:55.534Z,1020.33
2018-02-24T05:34:55.495Z,1020.34
2018-02-24T05:35:55.478Z,1020.36
2018-02-24T05:36:55.439Z,1020.39
2018-02-24T05:37:55.407Z,1020.34
2018-02-24T05:38:55.378Z,1020.36
2018-02-24T05:39:55.350Z,1020.38
2018-02-24T05:40:55.323Z,1020.40
2018-02-24T05:41:55.292Z,1020.38
2018-02-24T05:42:55.264Z,1020.37
2018-02-24T05:43:55.233Z,1020.36
2018-02-24T05:44:55.205Z,1020.39
2018-02-24T05:45:55.176Z,1020.42
2018-02-24T05:46:55.148Z,1020.43
2018-02-24T05:47:55.122Z,1020.43
2018-02-24T05:48:55.091Z,1020.47
2018-02-24T05:49:55.063Z,1020.47
2018-02-24T05:50:55.036Z,1020.47
2018-02-24T05:51:55.002Z,1020.54
2018-02-24T05:52:54.972Z,1020.51
2018-02-24T05:53:54.941Z,1020.54
2018-02-24T05:54:54.911Z,1020.58
2018-02-24T05:55:54.925Z,1020.57
2018-02-24T05:56:54.854Z,1020.57
2018-02-24T05:57:54.826Z,1020.57
2018-02-24T05:58:54.935Z,1020.58
2018-02-24T05:59:54.776Z,1020.57
2018-02-24T06:00:54.738Z,1020.56
2018-02-24T06:01:54.846Z,1020.60
2018-02-24T06:02:54.683Z,1020.57
2018-02-24T06:03:54.649Z,1020.57
2018-02-24T06:04:54.626Z,1020.56
2018-02-24T06:05:54.592Z,1020.59
2018-02-24T06:06:54.559Z,1020.61
2018-02-24T06:07:54.534Z,1020.67
2018-02-24T06:08:54.502Z,1020.65
2018-02-24T06:09:54.472Z,1020.68
2018-02-24T06:10:54.442Z,1020.67
2018-02-24T06:11:54.414Z,1020.71
2018-02-24T06:12:54.386Z,1020.67
2018-02-24T06:13:54.354Z,1020.70
2018-02-24T06:14:54.334Z,1020.69
2018-02-24T06:15:54.299Z,1020.72
2018-02-24T06:16:54.269Z,1020.73
2018-02-24T06:17:54.237Z,1020.72
2018-02-24T06:18:54.208Z,1020.75
2018-02-24T06:19:54.181Z,1020.72
2018-02-24T06:20:54.155Z,1020.76
2018-02-24T06:21:54.120Z,1020.76
2018-02-24T06:22:54.090Z,1020.79
2018-02-24T06:23:54.069Z,1020.82
2018-02-24T06:24:54.033Z,1020.82
2018-02-24T06:25:54.008Z,1020.81
2018-02-24T06:26:53.972Z,1020.86
2018-02-24T06:27:53.946Z,1020.81
2018-02-24T06:28:53.920Z,1020.84
2018-02-24T06:29:53.895Z,1020.82
2018-02-24T06:30:53.856Z,1020.83
2018-02-24T06:31:53.826Z,1020.83
2018-02-24T06:32:53.799Z,1020.81
2018-02-24T06:33:53.769Z,1020.87
2018-02-24T06:34:53.738Z,1020.81
2018-02-24T06:35:53.711Z,1020.82
2018-02-24T06:36:53.682Z,1020.80
2018-02-24T06:37:53.653Z,1020.84
2018-02-24T06:38:53.621Z,1020.82
2018-02-24T06:39:53.614Z,1020.83
2018-02-24T06:40:53.582Z,1020.85
2018-02-24T06:41:53.536Z,1020.87
2018-02-24T06:42:53.506Z,1020.87
2018-02-24T06:43:53.555Z,1020.88
2018-02-24T06:44:53.447Z,1020.90
2018-02-24T06:45:53.419Z,1020.89
2018-02-24T06:46:53.390Z,1020.91
2018-02-24T06:47:53.358Z,1020.91
2018-02-24T06:48:53.331Z,1020.93
2018-02-24T06:49:53.300Z,1020.91
2018-02-24T06:50:53.271Z,1020.95
2018-02-24T06:51:53.238Z,1020.95
2018-02-24T06:52:53.212Z,1020.95
2018-02-24T06:53:53.189Z,1020.92
2018-02-24T06:54:53.158Z,1020.93
2018-02-24T06:55:53.131Z,1020.95
2018-02-24T06:56:53.096Z,1020.94
2018-02-24T06:57:53.071Z,1020.96
2018-02-24T06:58:53.034Z,1020.98
2018-02-24T06:59:53.007Z,1020.99
2018-02-24T07:00:52.995Z,1021.03
2018-02-24T07:01:52.953Z,1021.05
2018-02-24T07:02:52.923Z,1021.11
2018-02-24T07:03:52.893Z,1021.08
2018-02-24T07:04:52.861Z,1021.10
2018-02-24T07:05:52.832Z,1021.14
2018-02-24T07:06:52.800Z,1021.15
2018-02-24T07:07:52.777Z,1021.19
2018-02-24T07:08:52.749Z,1021.17
2018-02-24T07:09:52.722Z,1021.14
2018-02-24T07:10:52.687Z,1021.16
2018-02-24T07:11:52.656Z,1021.15
2018-02-24T07:12:52.668Z,1021.18
2018-02-24T07:13:52.609Z,1021.15
2018-02-24T07:14:52.569Z,1021.19
2018-02-24T07:15:52.540Z,1021.18
2018-02-24T07:16:52.510Z,1021.16
2018-02-24T07:17:52.490Z,1021.24
2018-02-24T07:18:52.469Z,1021.22
2018-02-24T07:19:52.423Z,1021.23
2018-02-24T07:20:52.394Z,1021.21
2018-02-24T07:21:52.365Z,1021.25
2018-02-24T07:22:52.419Z,1021.22
2018-02-24T07:23:52.311Z,1021.21
2018-02-24T07:24:52.281Z,1021.25
2018-02-24T07:25:52.384Z,1021.25
2018-02-24T07:26:52.232Z,1021.31
2018-02-24T07:27:52.190Z,1021.28
2018-02-24T07:28:52.182Z,1021.30
2018-02-24T07:29:52.134Z,1021.29
2018-02-24T07:30:52.105Z,1021.32
2018-02-24T07:31:52.082Z,1021.29
2018-02-24T07:32:52.055Z,1021.26
2018-02-24T07:33:52.017Z,1021.31
2018-02-24T07:34:51.989Z,1021.29
2018-02-24T07:35:51.964Z,1021.25
2018-02-24T07:36:51.938Z,1021.28
2018-02-24T07:37:51.900Z,1021.28
2018-02-24T07:38:51.873Z,1021.29
2018-02-24T07:39:51.843Z,1021.34
2018-02-24T07:40:51.813Z,1021.39
2018-02-24T07:41:51.796Z,1021.33
2018-02-24T07:42:51.758Z,1021.37
2018-02-24T07:43:51.732Z,1021.31
2018-02-24T07:44:51.699Z,1021.39
2018-02-24T07:45:51.670Z,1021.31
2018-02-24T07:46:51.697Z,1021.32
2018-02-24T07:47:51.616Z,1021.31
2018-02-24T07:48:51.581Z,1021.38
2018-02-24T07:49:51.550Z,1021.40
2018-02-24T07:50:51.526Z,1021.38
2018-02-24T07:51:51.496Z,1021.43
2018-02-24T07:52:51.500Z,1021.41
2018-02-24T07:53:51.535Z,1021.44
2018-02-24T07:54:51.409Z,1021.44
2018-02-24T07:55:51.378Z,1021.39
2018-02-24T07:56:51.348Z,1021.35
2018-02-24T07:57:51.322Z,1021.38
2018-02-24T07:58:51.289Z,1021.36
2018-02-24T07:59:51.261Z,1021.46
2018-02-24T08:00:51.231Z,1021.43
2018-02-24T08:01:51.202Z,1021.41
2018-02-24T08:02:51.179Z,1021.46
2018-02-24T08:03:51.146Z,1021.42
2018-02-24T08:04:51.117Z,1021.47
2018-02-24T08:05:51.098Z,1021.52
2018-02-24T08:06:51.055Z,1021.44
2018-02-24T08:07:51.070Z,1021.48
2018-02-24T08:08:51.000Z,1021.48
2018-02-24T08:09:50.993Z,1021.50
2018-02-24T08:10:51.004Z,1021.45
2018-02-24T08:11:50.910Z,1021.48
2018-02-24T08:12:50.881Z,1021.51
2018-02-24T08:13:50.853Z,1021.47
2018-02-24T08:14:50.842Z,1021.47
2018-02-24T08:15:50.792Z,1021.42
2018-02-24T08:16:50.764Z,1021.45
2018-02-24T08:17:50.733Z,1021.48
2018-02-24T08:18:50.703Z,1021.41
2018-02-24T08:19:50.682Z,1021.52
2018-02-24T08:20:50.645Z,1021.46
2018-02-24T08:21:50.618Z,1021.49
2018-02-24T08:22:50.592Z,1021.51
2018-02-24T08:23:50.558Z,1021.54
2018-02-24T08:24:50.531Z,1021.52
2018-02-24T08:25:50.497Z,1021.46
2018-02-24T08:26:50.484Z,1021.48
2018-02-24T08:27:50.441Z,1021.44
2018-02-24T08:28:50.415Z,1021.48
2018-02-24T08:29:50.381Z,1021.44
2018-02-24T08:30:50.350Z,1021.54
2018-02-24T08:31:50.320Z,1021.48
2018-02-24T08:32:50.295Z,1021.49
2018-02-24T08:33:50.263Z,1021.50
2018-02-24T08:34:50.233Z,1021.53
2018-02-24T08:35:50.202Z,1021.55
2018-02-24T08:36:50.180Z,1021.50
2018-02-24T08:37:50.149Z,1021.56
2018-02-24T08:38:50.123Z,1021.60
2018-02-24T08:39:50.084Z,1021.63
2018-02-24T08:40:50.070Z,1021.59
2018-02-24T08:41:50.045Z,1021.59
2018-02-24T08:42:50.008Z,1021.61
2018-02-24T08:43:49.974Z,1021.66
2018-02-24T08:44:49.941Z,1021.68
2018-02-24T08:45:49.959Z,1021.69
2018-02-24T08:46:49.889Z,1021.62
2018-02-24T08:47:49.852Z,1021.65
2018-02-24T08:48:49.823Z,1021.66
2018-02-24T08:49:49.971Z,1021.63
2018-02-24T08:50:49.768Z,1021.71
2018-02-24T08:51:49.735Z,1021.60
2018-02-24T08:52:49.753Z,1021.69
2018-02-24T08:53:49.679Z,1021.62
2018-02-24T08:54:49.651Z,1021.64
2018-02-24T08:55:49.622Z,1021.63
2018-02-24T08:56:49.587Z,1021.70
2018-02-24T08:57:49.569Z,1021.70
2018-02-24T08:58:49.607Z,1021.76
2018-02-24T08:59:49.508Z,1021.60
2018-02-24T09:00:49.470Z,1021.75
2018-02-24T09:01:49.450Z,1021.76
2018-02-24T09:02:49.415Z,1021.78
2018-02-24T09:03:49.391Z,1021.80
2018-02-24T09:04:49.358Z,1021.84
2018-02-24T09:05:49.336Z,1021.91
2018-02-24T09:06:49.342Z,1021.91
2018-02-24T09:07:49.271Z,1022.01
2018-02-24T09:08:49.242Z,1022.15
2018-02-24T09:09:49.216Z,1022.13
2018-02-24T09:10:49.187Z,1022.16
2018-02-24T09:11:49.158Z,1022.16
2018-02-24T09:12:49.128Z,1022.19
2018-02-24T09:13:49.107Z,1022.20
2018-02-24T09:14:49.075Z,1022.17
2018-02-24T09:15:49.046Z,1022.11
2018-02-24T09:16:49.018Z,1022.15
2018-02-24T09:17:48.992Z,1022.24
2018-02-24T09:18:48.966Z,1022.24
2018-02-24T09:19:48.946Z,1022.22
2018-02-24T09:20:48.936Z,1022.27
2018-02-24T09:21:48.895Z,1022.31
2018-02-24T09:22:48.863Z,1022.37
2018-02-24T09:23:48.939Z,1022.48
2018-02-24T09:24:48.817Z,1022.34
2018-02-24T09:25:48.790Z,1022.45
2018-02-24T09:26:48.769Z,1022.29
2018-02-24T09:27:48.747Z,1022.36
2018-02-24T09:28:48.717Z,1022.30
2018-02-24T09:29:48.694Z,1022.32
2018-02-24T09:30:48.682Z,1022.27
2018-02-24T09:31:48.667Z,1022.28
2018-02-24T09:32:48.623Z,1022.39
2018-02-24T09:33:48.596Z,1022.42
2018-02-24T09:34:48.616Z,1022.44
2018-02-24T09:35:48.558Z,1022.49
2018-02-24T09:36:48.543Z,1022.37
2018-02-24T09:37:48.510Z,1022.39
2018-02-24T09:38:48.539Z,1022.52
2018-02-24T09:39:48.469Z,1022.39
2018-02-24T09:40:48.441Z,1022.35
2018-02-24T09:41:48.421Z,1022.40
2018-02-24T09:42:48.396Z,1022.35
2018-02-24T09:43:48.377Z,1022.37
2018-02-24T09:44:48.356Z,1022.42
2018-02-24T09:45:48.345Z,1022.38
2018-02-24T09:46:48.314Z,1022.54
2018-02-24T09:47:48.291Z,1022.39
2018-02-24T09:48:48.270Z,1022.42
2018-02-24T09:49:48.251Z,1022.46
2018-02-24T09:50:48.234Z,1022.47
2018-02-24T09:51:48.210Z,1022.53
2018-02-24T09:52:48.194Z,1022.49
2018-02-24T09:53:48.271Z,1022.36
2018-02-24T09:54:48.148Z,1022.47
2018-02-24T09:55:48.133Z,1022.42
2018-02-24T09:56:48.155Z,1022.43
2018-02-24T09:57:48.088Z,1022.43
2018-02-24T09:58:48.061Z,1022.44
2018-02-24T09:59:48.086Z,1022.46
2018-02-24T10:00:48.025Z,1022.45
2018-02-24T10:01:48.003Z,1022.47
2018-02-24T10:02:47.997Z,1022.47
2018-02-24T10:03:47.959Z,1022.47
2018-02-24T10:04:47.948Z,1022.49
2018-02-24T10:05:47.922Z,1022.53
2018-02-24T10:06:47.903Z,1022.61
2018-02-24T10:07:47.875Z,1022.54
2018-02-24T10:08:47.859Z,1022.59
2018-02-24T10:09:47.844Z,1022.64
2018-02-24T10:10:47.813Z,1022.67
2018-02-24T10:11:47.794Z,1022.61
2018-02-24T10:12:47.773Z,1022.64
2018-02-24T10:13:47.770Z,1022.57
2018-02-24T10:14:47.733Z,1022.51
2018-02-24T10:15:47.858Z,1022.56
2018-02-24T10:16:47.693Z,1022.53
2018-02-24T10:17:47.677Z,1022.41
2018-02-24T10:18:47.665Z,1022.34
2018-02-24T10:19:47.637Z,1022.40
2018-02-24T10:20:47.619Z,1022.32
2018-02-24T10:21:47.605Z,1022.38
2018-02-24T10:22:47.605Z,1022.23
2018-02-24T10:23:47.704Z,1022.28
2018-02-24T10:24:47.539Z,1022.29
2018-02-24T10:25:47.526Z,1022.30
2018-02-24T10:26:47.513Z,1022.24
2018-02-24T10:27:47.483Z,1022.24
2018-02-24T10:28:47.474Z,1022.17
2018-02-24T10:29:47.474Z,1022.13
2018-02-24T10:30:47.420Z,1022.17
2018-02-24T10:31:47.401Z,1022.21
2018-02-24T10:32:47.385Z,1022.24
2018-02-24T10:33:47.371Z,1022.24
2018-02-24T10:34:47.344Z,1022.24
2018-02-24T10:35:47.328Z,1022.19
2018-02-24T10:36:47.311Z,1022.23
2018-02-24T10:37:47.286Z,1022.25
2018-02-24T10:38:47.264Z,1022.17
2018-02-24T10:39:47.246Z,1022.19
2018-02-24T10:40:47.230Z,1022.24
2018-02-24T10:41:47.206Z,1022.27
2018-02-24T10:42:47.185Z,1022.28
2018-02-24T10:43:47.168Z,1022.23
2018-02-24T10:44:47.146Z,1022.27
2018-02-24T10:45:47.148Z,1022.33
2018-02-24T10:46:47.108Z,1022.20
2018-02-24T10:47:47.089Z,1022.39
2018-02-24T10:48:47.081Z,1022.35
2018-02-24T10:49:47.057Z,1022.40
2018-02-24T10:50:47.034Z,1022.31
2018-02-24T10:51:47.018Z,1022.30
2018-02-24T10:52:47.001Z,1022.26
2018-02-24T10:53:46.982Z,1022.31
2018-02-24T10:54:46.965Z,1022.29
2018-02-24T10:55:46.938Z,1022.33
2018-02-24T10:56:46.923Z,1022.35
2018-02-24T10:57:46.894Z,1022.32
2018-02-24T10:58:46.873Z,1022.20
2018-02-24T10:59:46.862Z,1022.23
2018-02-24T11:00:46.834Z,1022.23
2018-02-24T11:01:46.814Z,1022.26
2018-02-24T11:02:46.794Z,1022.26
2018-02-24T11:03:46.773Z,1022.24
2018-02-24T11:04:46.782Z,1022.16
2018-02-24T11:05:46.735Z,1022.15
2018-02-24T11:06:46.731Z,1022.15
2018-02-24T11:07:46.718Z,1022.21
2018-02-24T11:08:46.673Z,1022.12
2018-02-24T11:09:46.660Z,1022.13
2018-02-24T11:10:46.632Z,1022.25
2018-02-24T11:11:46.614Z,1022.20
2018-02-24T11:12:46.601Z,1022.10
2018-02-24T11:13:46.572Z,1022.45
2018-02-24T11:14:46.555Z,1022.09
2018-02-24T11:15:46.592Z,1022.17
2018-02-24T11:16:46.513Z,1022.08
2018-02-24T11:17:46.502Z,1022.11
2018-02-24T11:18:46.531Z,1022.11
2018-02-24T11:19:46.452Z,1022.05
2018-02-24T11:20:46.430Z,1022.05
2018-02-24T11:21:46.410Z,1022.11
2018-02-24T11:22:46.390Z,1022.10
2018-02-24T11:23:46.363Z,1022.08
2018-02-24T11:24:46.362Z,1022.06
2018-02-24T11:25:46.322Z,1022.06
2018-02-24T11:26:46.302Z,1022.09
2018-02-24T11:27:46.281Z,1022.14
2018-02-24T11:28:46.261Z,1022.14
2018-02-24T11:29:46.241Z,1022.26
2018-02-24T11:30:46.217Z,1022.20
2018-02-24T11:31:46.202Z,1022.16
2018-02-24T11:32:46.179Z,1022.16
2018-02-24T11:33:46.158Z,1022.07
2018-02-24T11:34:46.153Z,1022.08
2018-02-24T11:35:46.120Z,1022.13
2018-02-24T11:36:46.097Z,1022.13
2018-02-24T11:37:46.153Z,1022.09
2018-02-24T11:38:46.053Z,1022.08
2018-02-24T11:39:46.040Z,1022.10
2018-02-24T11:40:46.036Z,1022.09
2018-02-24T11:41:46.006Z,1022.09
2018-02-24T11:42:45.966Z,1021.97
2018-02-24T11:43:45.957Z,1022.03
2018-02-24T11:44:45.926Z,1021.96
2018-02-24T11:45:45.904Z,1022.03
2018-02-24T11:46:45.886Z,1021.98
2018-02-24T11:47:45.869Z,1022.12
2018-02-24T11:48:45.847Z,1022.02
2018-02-24T11:49:45.825Z,1022.00
2018-02-24T11:50:45.795Z,1021.91
2018-02-24T11:51:45.775Z,1021.95
2018-02-24T11:52:45.755Z,1021.93
2018-02-24T11:53:45.732Z,1021.92
2018-02-24T11:54:45.707Z,1021.89
2018-02-24T11:55:45.687Z,1021.99
2018-02-24T11:56:45.673Z,1021.93
2018-02-24T11:57:45.639Z,1021.93
2018-02-24T11:58:45.617Z,1021.93
2018-02-24T11:59:45.596Z,1021.85
2018-02-24T12:00:45.584Z,1021.80
2018-02-24T12:01:45.554Z,1021.84
2018-02-24T12:02:45.526Z,1021.79
2018-02-24T12:03:45.503Z,1021.83
2018-02-24T12:04:45.484Z,1021.85